sensor_id;sensor_type;location;lat;lon;timestamp;P1;durP1;ratioP1;P2;durP2;ratioP2
4051;SDS011;2040;50.924;11.604;2022-11-20T00:01:49;129.47;;;10.90;;
4051;SDS011;2040;50.924;11.604;2022-11-20T00:04:14;210.67;;;13.87;;
4051;SDS011;2040;50.924;11.604;2022-11-20T00:06:40;95.07;;;11.00;;
4051;SDS011;2040;50.924;11.604;2022-11-20T00:09:06;25.13;;;9.27;;
4051;SDS011;2040;50.924;11.604;2022-11-20T00:11:31;89.63;;;13.50;;
4051;SDS011;2040;50.924;11.604;2022-11-20T00:13:58;11.23;;;6.63;;
4051;SDS011;2040;50.924;11.604;2022-11-20T00:16:26;30.57;;;9.50;;
4051;SDS011;2040;50.924;11.604;2022-11-20T00:18:53;23.17;;;8.00;;
4051;SDS011;2040;50.924;11.604;2022-11-20T00:21:23;16.27;;;7.40;;
4051;SDS011;2040;50.924;11.604;2022-11-20T00:23:54;19.00;;;6.23;;
4051;SDS011;2040;50.924;11.604;2022-11-20T00:26:21;12.57;;;6.67;;
4051;SDS011;2040;50.924;11.604;2022-11-20T00:28:52;15.80;;;7.30;;
4051;SDS011;2040;50.924;11.604;2022-11-20T00:31:19;40.43;;;8.50;;
4051;SDS011;2040;50.924;11.604;2022-11-20T00:33:45;77.77;;;10.07;;
4051;SDS011;2040;50.924;11.604;2022-11-20T00:36:12;17.63;;;7.87;;
4051;SDS011;2040;50.924;11.604;2022-11-20T00:38:45;14.93;;;7.03;;
4051;SDS011;2040;50.924;11.604;2022-11-20T00:41:13;24.77;;;7.73;;
4051;SDS011;2040;50.924;11.604;2022-11-20T00:43:40;21.43;;;8.57;;
4051;SDS011;2040;50.924;11.604;2022-11-20T00:46:09;14.60;;;6.70;;
4051;SDS011;2040;50.924;11.604;2022-11-20T00:48:39;15.03;;;8.10;;
4051;SDS011;2040;50.924;11.604;2022-11-20T00:51:05;26.00;;;7.43;;
4051;SDS011;2040;50.924;11.604;2022-11-20T00:53:31;20.00;;;7.67;;
4051;SDS011;2040;50.924;11.604;2022-11-20T00:56:07;16.57;;;7.00;;
4051;SDS011;2040;50.924;11.604;2022-11-20T00:58:36;18.57;;;9.67;;
4051;SDS011;2040;50.924;11.604;2022-11-20T01:01:10;13.13;;;7.73;;
4051;SDS011;2040;50.924;11.604;2022-11-20T01:03:42;17.47;;;8.93;;
4051;SDS011;2040;50.924;11.604;2022-11-20T01:06:10;19.87;;;8.13;;
4051;SDS011;2040;50.924;11.604;2022-11-20T01:08:38;16.00;;;6.93;;
4051;SDS011;2040;50.924;11.604;2022-11-20T01:11:08;17.57;;;7.30;;
4051;SDS011;2040;50.924;11.604;2022-11-20T01:13:39;21.10;;;9.23;;
4051;SDS011;2040;50.924;11.604;2022-11-20T01:18:36;53.07;;;13.13;;
4051;SDS011;2040;50.924;11.604;2022-11-20T01:21:03;16.97;;;8.33;;
4051;SDS011;2040;50.924;11.604;2022-11-20T01:23:34;18.87;;;8.50;;
4051;SDS011;2040;50.924;11.604;2022-11-20T01:26:04;16.60;;;6.67;;
4051;SDS011;2040;50.924;11.604;2022-11-20T01:28:32;16.10;;;8.00;;
4051;SDS011;2040;50.924;11.604;2022-11-20T01:30:58;15.23;;;8.00;;
4051;SDS011;2040;50.924;11.604;2022-11-20T01:33:24;12.87;;;7.83;;
4051;SDS011;2040;50.924;11.604;2022-11-20T01:35:50;14.30;;;6.60;;
4051;SDS011;2040;50.924;11.604;2022-11-20T01:38:16;16.23;;;6.93;;
4051;SDS011;2040;50.924;11.604;2022-11-20T01:40:42;16.27;;;7.10;;
4051;SDS011;2040;50.924;11.604;2022-11-20T01:43:16;30.70;;;7.70;;
4051;SDS011;2040;50.924;11.604;2022-11-20T01:48:25;15.47;;;7.70;;
4051;SDS011;2040;50.924;11.604;2022-11-20T01:50:54;14.57;;;7.43;;
4051;SDS011;2040;50.924;11.604;2022-11-20T01:53:23;14.53;;;6.93;;
4051;SDS011;2040;50.924;11.604;2022-11-20T01:55:53;19.90;;;8.40;;
4051;SDS011;2040;50.924;11.604;2022-11-20T01:58:27;13.47;;;7.60;;
4051;SDS011;2040;50.924;11.604;2022-11-20T02:00:56;15.97;;;6.93;;
4051;SDS011;2040;50.924;11.604;2022-11-20T02:03:22;13.47;;;7.20;;
4051;SDS011;2040;50.924;11.604;2022-11-20T02:05:50;12.80;;;6.47;;
4051;SDS011;2040;50.924;11.604;2022-11-20T02:08:22;13.50;;;6.77;;
4051;SDS011;2040;50.924;11.604;2022-11-20T02:10:49;16.20;;;6.70;;
4051;SDS011;2040;50.924;11.604;2022-11-20T02:13:14;9.90;;;5.33;;
4051;SDS011;2040;50.924;11.604;2022-11-20T02:15:59;14.17;;;6.57;;
4051;SDS011;2040;50.924;11.604;2022-11-20T02:18:25;16.87;;;6.90;;
4051;SDS011;2040;50.924;11.604;2022-11-20T02:20:57;11.97;;;5.90;;
4051;SDS011;2040;50.924;11.604;2022-11-20T02:23:38;14.93;;;6.77;;
4051;SDS011;2040;50.924;11.604;2022-11-20T02:26:09;18.93;;;6.93;;
4051;SDS011;2040;50.924;11.604;2022-11-20T02:28:37;13.60;;;7.07;;
4051;SDS011;2040;50.924;11.604;2022-11-20T02:31:02;10.23;;;5.73;;
4051;SDS011;2040;50.924;11.604;2022-11-20T02:33:28;14.50;;;6.87;;
4051;SDS011;2040;50.924;11.604;2022-11-20T02:35:54;10.30;;;5.83;;
4051;SDS011;2040;50.924;11.604;2022-11-20T02:38:19;12.80;;;7.37;;
4051;SDS011;2040;50.924;11.604;2022-11-20T02:40:45;18.43;;;6.80;;
4051;SDS011;2040;50.924;11.604;2022-11-20T02:43:11;15.53;;;7.17;;
4051;SDS011;2040;50.924;11.604;2022-11-20T02:45:37;10.63;;;7.13;;
4051;SDS011;2040;50.924;11.604;2022-11-20T02:48:03;14.97;;;6.87;;
4051;SDS011;2040;50.924;11.604;2022-11-20T02:50:30;14.73;;;6.38;;
4051;SDS011;2040;50.924;11.604;2022-11-20T02:52:56;6.17;;;4.77;;
4051;SDS011;2040;50.924;11.604;2022-11-20T02:55:21;8.40;;;5.63;;
4051;SDS011;2040;50.924;11.604;2022-11-20T02:57:47;9.53;;;5.80;;
4051;SDS011;2040;50.924;11.604;2022-11-20T03:00:13;18.33;;;7.60;;
4051;SDS011;2040;50.924;11.604;2022-11-20T03:02:39;13.43;;;5.93;;
4051;SDS011;2040;50.924;11.604;2022-11-20T03:05:04;10.17;;;6.43;;
4051;SDS011;2040;50.924;11.604;2022-11-20T03:07:30;14.50;;;7.37;;
4051;SDS011;2040;50.924;11.604;2022-11-20T03:09:56;15.70;;;7.20;;
4051;SDS011;2040;50.924;11.604;2022-11-20T03:12:21;9.80;;;5.90;;
4051;SDS011;2040;50.924;11.604;2022-11-20T03:14:47;12.53;;;5.97;;
4051;SDS011;2040;50.924;11.604;2022-11-20T03:17:12;14.63;;;6.90;;
4051;SDS011;2040;50.924;11.604;2022-11-20T03:19:38;9.90;;;6.30;;
4051;SDS011;2040;50.924;11.604;2022-11-20T03:22:03;18.13;;;7.73;;
4051;SDS011;2040;50.924;11.604;2022-11-20T03:24:29;15.30;;;6.33;;
4051;SDS011;2040;50.924;11.604;2022-11-20T03:26:55;13.30;;;7.37;;
4051;SDS011;2040;50.924;11.604;2022-11-20T03:29:20;15.30;;;6.47;;
4051;SDS011;2040;50.924;11.604;2022-11-20T03:31:46;12.00;;;6.00;;
4051;SDS011;2040;50.924;11.604;2022-11-20T03:34:11;13.80;;;7.47;;
4051;SDS011;2040;50.924;11.604;2022-11-20T03:36:38;11.00;;;6.07;;
4051;SDS011;2040;50.924;11.604;2022-11-20T03:39:04;11.97;;;6.80;;
4051;SDS011;2040;50.924;11.604;2022-11-20T03:41:30;7.37;;;4.60;;
4051;SDS011;2040;50.924;11.604;2022-11-20T03:44:01;15.27;;;7.03;;
4051;SDS011;2040;50.924;11.604;2022-11-20T03:46:28;17.73;;;8.93;;
4051;SDS011;2040;50.924;11.604;2022-11-20T03:48:54;13.52;;;5.90;;
4051;SDS011;2040;50.924;11.604;2022-11-20T03:51:21;9.27;;;5.87;;
4051;SDS011;2040;50.924;11.604;2022-11-20T03:53:48;13.57;;;5.85;;
4051;SDS011;2040;50.924;11.604;2022-11-20T03:56:16;11.80;;;6.47;;
4051;SDS011;2040;50.924;11.604;2022-11-20T03:58:44;10.65;;;5.22;;
4051;SDS011;2040;50.924;11.604;2022-11-20T04:01:11;12.70;;;6.27;;
4051;SDS011;2040;50.924;11.604;2022-11-20T04:03:38;14.43;;;5.57;;
4051;SDS011;2040;50.924;11.604;2022-11-20T04:06:05;16.65;;;6.53;;
4051;SDS011;2040;50.924;11.604;2022-11-20T04:08:33;12.15;;;5.25;;
4051;SDS011;2040;50.924;11.604;2022-11-20T04:13:33;9.63;;;5.93;;
4051;SDS011;2040;50.924;11.604;2022-11-20T04:15:59;6.93;;;4.63;;
4051;SDS011;2040;50.924;11.604;2022-11-20T04:18:25;18.33;;;6.87;;
4051;SDS011;2040;50.924;11.604;2022-11-20T04:20:50;13.90;;;6.77;;
4051;SDS011;2040;50.924;11.604;2022-11-20T04:23:16;21.00;;;6.73;;
4051;SDS011;2040;50.924;11.604;2022-11-20T04:25:41;16.03;;;6.20;;
4051;SDS011;2040;50.924;11.604;2022-11-20T04:28:07;11.67;;;5.50;;
4051;SDS011;2040;50.924;11.604;2022-11-20T04:30:32;10.33;;;5.70;;
4051;SDS011;2040;50.924;11.604;2022-11-20T04:32:58;13.70;;;7.13;;
4051;SDS011;2040;50.924;11.604;2022-11-20T04:35:23;12.00;;;6.17;;
4051;SDS011;2040;50.924;11.604;2022-11-20T04:37:51;11.37;;;5.73;;
4051;SDS011;2040;50.924;11.604;2022-11-20T04:40:17;8.07;;;4.53;;
4051;SDS011;2040;50.924;11.604;2022-11-20T04:42:42;7.77;;;5.43;;
4051;SDS011;2040;50.924;11.604;2022-11-20T04:45:08;11.10;;;4.97;;
4051;SDS011;2040;50.924;11.604;2022-11-20T04:47:34;11.03;;;5.50;;
4051;SDS011;2040;50.924;11.604;2022-11-20T04:49:59;10.00;;;4.90;;
4051;SDS011;2040;50.924;11.604;2022-11-20T04:52:25;9.53;;;5.77;;
4051;SDS011;2040;50.924;11.604;2022-11-20T04:54:50;18.80;;;7.03;;
4051;SDS011;2040;50.924;11.604;2022-11-20T04:57:18;10.30;;;5.18;;
4051;SDS011;2040;50.924;11.604;2022-11-20T04:59:43;14.88;;;5.60;;
4051;SDS011;2040;50.924;11.604;2022-11-20T05:02:09;9.40;;;4.97;;
4051;SDS011;2040;50.924;11.604;2022-11-20T05:04:36;13.50;;;5.18;;
4051;SDS011;2040;50.924;11.604;2022-11-20T05:07:01;8.83;;;6.10;;
4051;SDS011;2040;50.924;11.604;2022-11-20T05:09:27;13.00;;;5.00;;
4051;SDS011;2040;50.924;11.604;2022-11-20T05:11:53;8.53;;;6.23;;
4051;SDS011;2040;50.924;11.604;2022-11-20T05:14:18;8.60;;;4.70;;
4051;SDS011;2040;50.924;11.604;2022-11-20T05:16:44;7.63;;;4.63;;
4051;SDS011;2040;50.924;11.604;2022-11-20T05:19:09;11.30;;;5.63;;
4051;SDS011;2040;50.924;11.604;2022-11-20T05:21:35;11.47;;;6.40;;
4051;SDS011;2040;50.924;11.604;2022-11-20T05:24:01;11.57;;;5.63;;
4051;SDS011;2040;50.924;11.604;2022-11-20T05:26:26;7.63;;;5.30;;
4051;SDS011;2040;50.924;11.604;2022-11-20T05:28:52;18.20;;;7.20;;
4051;SDS011;2040;50.924;11.604;2022-11-20T05:31:18;13.63;;;6.20;;
4051;SDS011;2040;50.924;11.604;2022-11-20T05:33:46;11.25;;;5.97;;
4051;SDS011;2040;50.924;11.604;2022-11-20T05:36:12;7.83;;;4.17;;
4051;SDS011;2040;50.924;11.604;2022-11-20T05:38:38;13.13;;;6.00;;
4051;SDS011;2040;50.924;11.604;2022-11-20T05:43:35;7.18;;;4.80;;
4051;SDS011;2040;50.924;11.604;2022-11-20T05:46:02;13.63;;;5.05;;
4051;SDS011;2040;50.924;11.604;2022-11-20T05:48:28;9.93;;;4.50;;
4051;SDS011;2040;50.924;11.604;2022-11-20T05:50:54;10.33;;;5.60;;
4051;SDS011;2040;50.924;11.604;2022-11-20T05:53:21;8.80;;;5.63;;
4051;SDS011;2040;50.924;11.604;2022-11-20T05:55:55;7.70;;;3.90;;
4051;SDS011;2040;50.924;11.604;2022-11-20T05:58:31;8.90;;;6.25;;
4051;SDS011;2040;50.924;11.604;2022-11-20T06:03:32;11.70;;;5.35;;
4051;SDS011;2040;50.924;11.604;2022-11-20T06:06:01;9.90;;;4.70;;
4051;SDS011;2040;50.924;11.604;2022-11-20T06:08:28;19.25;;;6.63;;
4051;SDS011;2040;50.924;11.604;2022-11-20T06:10:54;10.97;;;5.43;;
4051;SDS011;2040;50.924;11.604;2022-11-20T06:13:19;13.13;;;6.60;;
4051;SDS011;2040;50.924;11.604;2022-11-20T06:15:51;8.73;;;4.60;;
4051;SDS011;2040;50.924;11.604;2022-11-20T06:18:17;10.77;;;5.13;;
4051;SDS011;2040;50.924;11.604;2022-11-20T06:20:43;9.60;;;4.67;;
4051;SDS011;2040;50.924;11.604;2022-11-20T06:23:09;8.17;;;5.87;;
4051;SDS011;2040;50.924;11.604;2022-11-20T06:25:39;9.37;;;5.90;;
4051;SDS011;2040;50.924;11.604;2022-11-20T06:28:05;15.88;;;7.80;;
4051;SDS011;2040;50.924;11.604;2022-11-20T06:30:31;11.50;;;6.28;;
4051;SDS011;2040;50.924;11.604;2022-11-20T06:32:57;12.93;;;6.17;;
4051;SDS011;2040;50.924;11.604;2022-11-20T06:35:23;8.23;;;4.70;;
4051;SDS011;2040;50.924;11.604;2022-11-20T06:37:48;7.40;;;4.40;;
4051;SDS011;2040;50.924;11.604;2022-11-20T06:40:14;10.00;;;5.40;;
4051;SDS011;2040;50.924;11.604;2022-11-20T06:42:40;12.13;;;5.87;;
4051;SDS011;2040;50.924;11.604;2022-11-20T06:45:06;9.50;;;5.43;;
4051;SDS011;2040;50.924;11.604;2022-11-20T06:47:32;8.57;;;4.65;;
4051;SDS011;2040;50.924;11.604;2022-11-20T06:49:58;15.77;;;5.47;;
4051;SDS011;2040;50.924;11.604;2022-11-20T06:52:23;10.00;;;4.70;;
4051;SDS011;2040;50.924;11.604;2022-11-20T06:54:49;13.83;;;6.17;;
4051;SDS011;2040;50.924;11.604;2022-11-20T06:57:15;4.90;;;3.50;;
4051;SDS011;2040;50.924;11.604;2022-11-20T06:59:40;9.97;;;5.43;;
4051;SDS011;2040;50.924;11.604;2022-11-20T07:02:09;7.90;;;4.33;;
4051;SDS011;2040;50.924;11.604;2022-11-20T07:04:36;9.50;;;5.18;;
4051;SDS011;2040;50.924;11.604;2022-11-20T07:07:02;10.70;;;6.13;;
4051;SDS011;2040;50.924;11.604;2022-11-20T07:09:28;9.83;;;5.80;;
4051;SDS011;2040;50.924;11.604;2022-11-20T07:11:53;7.83;;;4.90;;
4051;SDS011;2040;50.924;11.604;2022-11-20T07:14:19;18.40;;;5.30;;
4051;SDS011;2040;50.924;11.604;2022-11-20T07:16:44;15.33;;;5.73;;
4051;SDS011;2040;50.924;11.604;2022-11-20T07:19:10;11.80;;;5.50;;
4051;SDS011;2040;50.924;11.604;2022-11-20T07:21:36;7.67;;;4.00;;
4051;SDS011;2040;50.924;11.604;2022-11-20T07:24:01;11.37;;;5.67;;
4051;SDS011;2040;50.924;11.604;2022-11-20T07:26:27;7.80;;;5.60;;
4051;SDS011;2040;50.924;11.604;2022-11-20T07:28:53;14.80;;;7.37;;
4051;SDS011;2040;50.924;11.604;2022-11-20T07:31:18;14.53;;;6.50;;
4051;SDS011;2040;50.924;11.604;2022-11-20T07:33:44;11.10;;;6.53;;
4051;SDS011;2040;50.924;11.604;2022-11-20T07:36:09;11.37;;;7.80;;
4051;SDS011;2040;50.924;11.604;2022-11-20T07:38:36;13.40;;;6.97;;
4051;SDS011;2040;50.924;11.604;2022-11-20T07:41:02;12.48;;;9.00;;
4051;SDS011;2040;50.924;11.604;2022-11-20T07:43:28;22.83;;;10.40;;
4051;SDS011;2040;50.924;11.604;2022-11-20T07:45:57;14.40;;;6.90;;
4051;SDS011;2040;50.924;11.604;2022-11-20T07:48:24;15.32;;;6.13;;
4051;SDS011;2040;50.924;11.604;2022-11-20T07:50:53;12.03;;;6.60;;
4051;SDS011;2040;50.924;11.604;2022-11-20T07:53:19;15.73;;;6.32;;
4051;SDS011;2040;50.924;11.604;2022-11-20T07:55:46;16.10;;;7.40;;
4051;SDS011;2040;50.924;11.604;2022-11-20T07:58:13;14.73;;;8.27;;
4051;SDS011;2040;50.924;11.604;2022-11-20T08:00:39;10.27;;;5.63;;
4051;SDS011;2040;50.924;11.604;2022-11-20T08:03:05;11.13;;;5.87;;
4051;SDS011;2040;50.924;11.604;2022-11-20T08:05:32;16.53;;;8.30;;
4051;SDS011;2040;50.924;11.604;2022-11-20T08:07:58;12.90;;;6.57;;
4051;SDS011;2040;50.924;11.604;2022-11-20T08:10:23;8.57;;;6.10;;
4051;SDS011;2040;50.924;11.604;2022-11-20T08:12:51;15.33;;;7.27;;
4051;SDS011;2040;50.924;11.604;2022-11-20T08:15:36;17.33;;;7.20;;
4051;SDS011;2040;50.924;11.604;2022-11-20T08:18:04;12.20;;;6.20;;
4051;SDS011;2040;50.924;11.604;2022-11-20T08:20:31;12.07;;;5.40;;
4051;SDS011;2040;50.924;11.604;2022-11-20T08:22:58;12.50;;;6.20;;
4051;SDS011;2040;50.924;11.604;2022-11-20T08:25:25;12.80;;;6.37;;
4051;SDS011;2040;50.924;11.604;2022-11-20T08:27:51;18.90;;;7.90;;
4051;SDS011;2040;50.924;11.604;2022-11-20T08:30:16;13.67;;;7.20;;
4051;SDS011;2040;50.924;11.604;2022-11-20T08:32:42;13.77;;;6.90;;
4051;SDS011;2040;50.924;11.604;2022-11-20T08:35:08;14.80;;;5.60;;
4051;SDS011;2040;50.924;11.604;2022-11-20T08:37:33;15.63;;;7.10;;
4051;SDS011;2040;50.924;11.604;2022-11-20T08:39:59;14.87;;;7.57;;
4051;SDS011;2040;50.924;11.604;2022-11-20T08:42:24;13.00;;;6.30;;
4051;SDS011;2040;50.924;11.604;2022-11-20T08:44:50;12.57;;;6.30;;
4051;SDS011;2040;50.924;11.604;2022-11-20T08:47:16;18.30;;;7.60;;
4051;SDS011;2040;50.924;11.604;2022-11-20T08:49:41;13.13;;;6.90;;
4051;SDS011;2040;50.924;11.604;2022-11-20T08:52:07;14.70;;;6.97;;
4051;SDS011;2040;50.924;11.604;2022-11-20T08:54:32;12.80;;;6.27;;
4051;SDS011;2040;50.924;11.604;2022-11-20T08:56:58;9.77;;;5.30;;
4051;SDS011;2040;50.924;11.604;2022-11-20T08:59:23;14.33;;;6.17;;
4051;SDS011;2040;50.924;11.604;2022-11-20T09:01:49;18.17;;;8.17;;
4051;SDS011;2040;50.924;11.604;2022-11-20T09:04:15;10.10;;;6.03;;
4051;SDS011;2040;50.924;11.604;2022-11-20T09:06:40;13.67;;;6.80;;
4051;SDS011;2040;50.924;11.604;2022-11-20T09:09:06;16.97;;;7.10;;
4051;SDS011;2040;50.924;11.604;2022-11-20T09:11:32;10.40;;;6.77;;
4051;SDS011;2040;50.924;11.604;2022-11-20T09:13:57;13.20;;;6.20;;
4051;SDS011;2040;50.924;11.604;2022-11-20T09:16:23;14.90;;;6.40;;
4051;SDS011;2040;50.924;11.604;2022-11-20T09:18:49;14.30;;;6.93;;
4051;SDS011;2040;50.924;11.604;2022-11-20T09:21:15;13.97;;;7.83;;
4051;SDS011;2040;50.924;11.604;2022-11-20T09:23:41;15.27;;;7.50;;
4051;SDS011;2040;50.924;11.604;2022-11-20T09:26:11;11.97;;;6.33;;
4051;SDS011;2040;50.924;11.604;2022-11-20T09:28:38;15.00;;;5.87;;
4051;SDS011;2040;50.924;11.604;2022-11-20T09:31:05;15.67;;;7.40;;
4051;SDS011;2040;50.924;11.604;2022-11-20T09:33:32;13.70;;;6.03;;
4051;SDS011;2040;50.924;11.604;2022-11-20T09:35:57;14.07;;;6.43;;
4051;SDS011;2040;50.924;11.604;2022-11-20T09:38:23;12.50;;;6.67;;
4051;SDS011;2040;50.924;11.604;2022-11-20T09:40:57;11.97;;;7.30;;
4051;SDS011;2040;50.924;11.604;2022-11-20T09:49:23;18.07;;;7.37;;
4051;SDS011;2040;50.924;11.604;2022-11-20T09:54:47;19.87;;;8.40;;
4051;SDS011;2040;50.924;11.604;2022-11-20T09:57:18;21.97;;;9.57;;
4051;SDS011;2040;50.924;11.604;2022-11-20T09:59:50;12.20;;;6.20;;
4051;SDS011;2040;50.924;11.604;2022-11-20T10:10:35;14.20;;;7.13;;
4051;SDS011;2040;50.924;11.604;2022-11-20T10:21:33;13.10;;;7.10;;
4051;SDS011;2040;50.924;11.604;2022-11-20T10:29:59;18.73;;;7.20;;
4051;SDS011;2040;50.924;11.604;2022-11-20T10:33:12;16.97;;;7.23;;
4051;SDS011;2040;50.924;11.604;2022-11-20T10:37:56;13.07;;;7.10;;
4051;SDS011;2040;50.924;11.604;2022-11-20T10:43:13;14.20;;;8.50;;
4051;SDS011;2040;50.924;11.604;2022-11-20T10:48:15;16.87;;;7.83;;
4051;SDS011;2040;50.924;11.604;2022-11-20T10:53:42;14.67;;;7.93;;
4051;SDS011;2040;50.924;11.604;2022-11-20T10:59:03;10.67;;;6.77;;
4051;SDS011;2040;50.924;11.604;2022-11-20T11:01:48;22.80;;;11.37;;
4051;SDS011;2040;50.924;11.604;2022-11-20T11:04:35;20.90;;;9.70;;
4051;SDS011;2040;50.924;11.604;2022-11-20T11:09:41;13.73;;;6.97;;
4051;SDS011;2040;50.924;11.604;2022-11-20T11:12:11;12.27;;;6.53;;
4051;SDS011;2040;50.924;11.604;2022-11-20T11:14:44;13.53;;;7.43;;
4051;SDS011;2040;50.924;11.604;2022-11-20T11:17:20;15.20;;;8.40;;
4051;SDS011;2040;50.924;11.604;2022-11-20T11:19:57;14.60;;;7.30;;
4051;SDS011;2040;50.924;11.604;2022-11-20T11:22:23;14.10;;;7.37;;
4051;SDS011;2040;50.924;11.604;2022-11-20T11:24:52;13.17;;;6.77;;
4051;SDS011;2040;50.924;11.604;2022-11-20T11:27:18;17.00;;;8.07;;
4051;SDS011;2040;50.924;11.604;2022-11-20T11:29:44;16.00;;;8.20;;
4051;SDS011;2040;50.924;11.604;2022-11-20T11:32:13;13.80;;;7.87;;
4051;SDS011;2040;50.924;11.604;2022-11-20T11:34:40;18.23;;;8.50;;
4051;SDS011;2040;50.924;11.604;2022-11-20T11:37:32;19.50;;;7.60;;
4051;SDS011;2040;50.924;11.604;2022-11-20T11:40:00;13.07;;;6.80;;
4051;SDS011;2040;50.924;11.604;2022-11-20T11:42:27;17.80;;;8.70;;
4051;SDS011;2040;50.924;11.604;2022-11-20T11:44:53;13.03;;;7.50;;
4051;SDS011;2040;50.924;11.604;2022-11-20T11:50:08;25.80;;;10.53;;
4051;SDS011;2040;50.924;11.604;2022-11-20T12:01:29;31.57;;;11.80;;
4051;SDS011;2040;50.924;11.604;2022-11-20T12:04:04;26.10;;;9.70;;
4051;SDS011;2040;50.924;11.604;2022-11-20T12:06:32;27.80;;;12.00;;
4051;SDS011;2040;50.924;11.604;2022-11-20T12:09:03;18.17;;;8.03;;
4051;SDS011;2040;50.924;11.604;2022-11-20T12:16:49;15.40;;;6.00;;
4051;SDS011;2040;50.924;11.604;2022-11-20T12:19:15;18.77;;;8.23;;
4051;SDS011;2040;50.924;11.604;2022-11-20T12:21:56;10.40;;;5.30;;
4051;SDS011;2040;50.924;11.604;2022-11-20T12:35:28;27.40;;;11.83;;
4051;SDS011;2040;50.924;11.604;2022-11-20T12:43:34;15.47;;;8.03;;
4051;SDS011;2040;50.924;11.604;2022-11-20T12:52:19;14.57;;;8.70;;
4051;SDS011;2040;50.924;11.604;2022-11-20T12:55:16;15.90;;;8.63;;
4051;SDS011;2040;50.924;11.604;2022-11-20T12:58:11;15.60;;;8.00;;
4051;SDS011;2040;50.924;11.604;2022-11-20T13:01:03;20.37;;;9.17;;
4051;SDS011;2040;50.924;11.604;2022-11-20T13:06:43;14.20;;;7.50;;
4051;SDS011;2040;50.924;11.604;2022-11-20T13:09:10;15.53;;;7.43;;
4051;SDS011;2040;50.924;11.604;2022-11-20T13:11:46;18.40;;;7.77;;
4051;SDS011;2040;50.924;11.604;2022-11-20T13:16:50;13.63;;;7.43;;
4051;SDS011;2040;50.924;11.604;2022-11-20T13:19:17;12.17;;;5.57;;
4051;SDS011;2040;50.924;11.604;2022-11-20T13:21:44;11.10;;;5.70;;
4051;SDS011;2040;50.924;11.604;2022-11-20T13:27:34;18.40;;;7.53;;
4051;SDS011;2040;50.924;11.604;2022-11-20T13:29:37;15.00;;;7.30;;
4051;SDS011;2040;50.924;11.604;2022-11-20T13:34:55;15.53;;;6.90;;
4051;SDS011;2040;50.924;11.604;2022-11-20T13:37:36;23.37;;;7.70;;
4051;SDS011;2040;50.924;11.604;2022-11-20T13:40:12;12.07;;;6.17;;
4051;SDS011;2040;50.924;11.604;2022-11-20T13:42:45;19.80;;;7.57;;
4051;SDS011;2040;50.924;11.604;2022-11-20T13:45:29;13.17;;;6.73;;
4051;SDS011;2040;50.924;11.604;2022-11-20T13:47:57;12.23;;;6.37;;
4051;SDS011;2040;50.924;11.604;2022-11-20T13:55:54;16.27;;;8.27;;
4051;SDS011;2040;50.924;11.604;2022-11-20T13:58:40;17.30;;;9.77;;
4051;SDS011;2040;50.924;11.604;2022-11-20T14:01:25;22.00;;;8.90;;
4051;SDS011;2040;50.924;11.604;2022-11-20T14:03:54;20.97;;;10.03;;
4051;SDS011;2040;50.924;11.604;2022-11-20T14:09:03;19.43;;;8.30;;
4051;SDS011;2040;50.924;11.604;2022-11-20T14:11:29;13.63;;;7.40;;
4051;SDS011;2040;50.924;11.604;2022-11-20T14:16:45;19.00;;;8.23;;
4051;SDS011;2040;50.924;11.604;2022-11-20T14:21:47;22.00;;;9.73;;
4051;SDS011;2040;50.924;11.604;2022-11-20T14:24:21;20.83;;;8.00;;
4051;SDS011;2040;50.924;11.604;2022-11-20T14:26:48;17.07;;;8.47;;
4051;SDS011;2040;50.924;11.604;2022-11-20T14:29:17;18.87;;;7.93;;
4051;SDS011;2040;50.924;11.604;2022-11-20T14:31:50;17.20;;;7.70;;
4051;SDS011;2040;50.924;11.604;2022-11-20T14:34:19;17.20;;;7.40;;
4051;SDS011;2040;50.924;11.604;2022-11-20T14:36:47;23.07;;;8.53;;
4051;SDS011;2040;50.924;11.604;2022-11-20T14:39:22;13.50;;;6.90;;
4051;SDS011;2040;50.924;11.604;2022-11-20T14:41:54;20.77;;;7.43;;
4051;SDS011;2040;50.924;11.604;2022-11-20T14:44:20;21.30;;;9.57;;
4051;SDS011;2040;50.924;11.604;2022-11-20T14:46:50;18.30;;;8.50;;
4051;SDS011;2040;50.924;11.604;2022-11-20T14:49:17;16.30;;;8.53;;
4051;SDS011;2040;50.924;11.604;2022-11-20T14:51:43;21.27;;;9.07;;
4051;SDS011;2040;50.924;11.604;2022-11-20T14:54:14;22.60;;;9.23;;
4051;SDS011;2040;50.924;11.604;2022-11-20T14:56:57;22.80;;;9.73;;
4051;SDS011;2040;50.924;11.604;2022-11-20T14:59:25;18.47;;;8.30;;
4051;SDS011;2040;50.924;11.604;2022-11-20T15:04:51;18.23;;;8.10;;
4051;SDS011;2040;50.924;11.604;2022-11-20T15:07:29;17.43;;;8.97;;
4051;SDS011;2040;50.924;11.604;2022-11-20T15:10:10;20.47;;;10.60;;
4051;SDS011;2040;50.924;11.604;2022-11-20T15:12:40;19.57;;;10.03;;
4051;SDS011;2040;50.924;11.604;2022-11-20T15:15:12;18.97;;;9.43;;
4051;SDS011;2040;50.924;11.604;2022-11-20T15:17:42;15.60;;;8.63;;
4051;SDS011;2040;50.924;11.604;2022-11-20T15:20:11;20.77;;;8.20;;
4051;SDS011;2040;50.924;11.604;2022-11-20T15:22:40;15.20;;;7.30;;
4051;SDS011;2040;50.924;11.604;2022-11-20T15:25:16;13.60;;;5.77;;
4051;SDS011;2040;50.924;11.604;2022-11-20T15:27:43;23.17;;;8.50;;
4051;SDS011;2040;50.924;11.604;2022-11-20T15:30:16;13.20;;;6.50;;
4051;SDS011;2040;50.924;11.604;2022-11-20T15:32:43;14.80;;;7.13;;
4051;SDS011;2040;50.924;11.604;2022-11-20T15:35:10;12.03;;;5.87;;
4051;SDS011;2040;50.924;11.604;2022-11-20T15:37:37;13.33;;;5.97;;
4051;SDS011;2040;50.924;11.604;2022-11-20T15:40:03;12.30;;;6.20;;
4051;SDS011;2040;50.924;11.604;2022-11-20T15:42:30;14.70;;;7.50;;
4051;SDS011;2040;50.924;11.604;2022-11-20T15:44:55;13.27;;;5.80;;
4051;SDS011;2040;50.924;11.604;2022-11-20T15:47:23;10.43;;;5.57;;
4051;SDS011;2040;50.924;11.604;2022-11-20T15:49:54;10.27;;;5.77;;
4051;SDS011;2040;50.924;11.604;2022-11-20T15:52:20;14.83;;;6.43;;
4051;SDS011;2040;50.924;11.604;2022-11-20T15:54:46;16.40;;;6.13;;
4051;SDS011;2040;50.924;11.604;2022-11-20T15:57:12;16.50;;;9.00;;
4051;SDS011;2040;50.924;11.604;2022-11-20T15:59:39;14.20;;;7.07;;
4051;SDS011;2040;50.924;11.604;2022-11-20T16:02:10;16.13;;;7.90;;
4051;SDS011;2040;50.924;11.604;2022-11-20T16:04:37;14.43;;;6.47;;
4051;SDS011;2040;50.924;11.604;2022-11-20T16:07:03;16.33;;;7.60;;
4051;SDS011;2040;50.924;11.604;2022-11-20T16:09:29;18.87;;;7.30;;
4051;SDS011;2040;50.924;11.604;2022-11-20T16:11:55;19.10;;;6.27;;
4051;SDS011;2040;50.924;11.604;2022-11-20T16:14:20;12.60;;;6.03;;
4051;SDS011;2040;50.924;11.604;2022-11-20T16:17:05;14.80;;;7.43;;
4051;SDS011;2040;50.924;11.604;2022-11-20T16:19:30;12.10;;;5.97;;
4051;SDS011;2040;50.924;11.604;2022-11-20T16:21:59;16.57;;;7.17;;
4051;SDS011;2040;50.924;11.604;2022-11-20T16:24:26;17.53;;;7.57;;
4051;SDS011;2040;50.924;11.604;2022-11-20T16:26:52;14.23;;;7.07;;
4051;SDS011;2040;50.924;11.604;2022-11-20T16:29:18;14.00;;;6.67;;
4051;SDS011;2040;50.924;11.604;2022-11-20T16:31:44;18.93;;;7.17;;
4051;SDS011;2040;50.924;11.604;2022-11-20T16:34:10;21.90;;;8.23;;
4051;SDS011;2040;50.924;11.604;2022-11-20T16:36:35;24.53;;;11.60;;
4051;SDS011;2040;50.924;11.604;2022-11-20T16:39:04;26.83;;;10.27;;
4051;SDS011;2040;50.924;11.604;2022-11-20T16:41:31;23.67;;;11.80;;
4051;SDS011;2040;50.924;11.604;2022-11-20T16:43:58;28.33;;;12.13;;
4051;SDS011;2040;50.924;11.604;2022-11-20T16:46:26;22.30;;;10.53;;
4051;SDS011;2040;50.924;11.604;2022-11-20T16:51:23;24.53;;;11.60;;
4051;SDS011;2040;50.924;11.604;2022-11-20T16:53:50;21.03;;;10.47;;
4051;SDS011;2040;50.924;11.604;2022-11-20T16:56:18;22.10;;;8.03;;
4051;SDS011;2040;50.924;11.604;2022-11-20T16:58:47;15.70;;;8.07;;
4051;SDS011;2040;50.924;11.604;2022-11-20T17:01:14;18.33;;;8.10;;
4051;SDS011;2040;50.924;11.604;2022-11-20T17:03:44;18.47;;;9.23;;
4051;SDS011;2040;50.924;11.604;2022-11-20T17:06:22;25.90;;;11.30;;